Washington, NJ (07882)

3:06 AM EST on February 11, 2016 (GMT -0500)
Washington Twp | | Change Station
CLOSE
Current Station
Personal Weather Station
Location: Washington, NJ
Elevation: 512 ft
Nearby Weather Stations

Elev 512 ft 40.77 °N, 74.99 °W | Updated 15 minutes ago

Overcast
Overcast
22.1 °F
Feels Like 15 °F
N
5.8
Wind Variable Wind from WNW

Today
High -- | Low -- °F
--% Chance of Precip.
Yesterday
High -- | Low -- °F
Precip. -- in
Pressure 29.81 in
Visibility 10.0 miles
Clouds Overcast 8000 ft
Windchill 15 °F
Dew Point 6 °F
Humidity 50%
Rainfall 0.00 in
Snow Depth Not available.
6:59 AM 5:29 PM
Waxing Crescent, 10% visible
METAR KSMQ 110753Z AUTO 29008G18KT 10SM OVC080 M03/M13 A2980 RMK AO2 SNE06 SLP093 P0000 T10331133
Pressure 29.81 in
Visibility 10.0 miles
Clouds Overcast 8000 ft
Windchill 15 °F
Dew Point 6 °F
Humidity 50%
Rainfall 0.00 in
Snow Depth Not available.
6:59 AM 5:29 PM
Waxing Crescent, 10% visible
METAR KSMQ 110753Z AUTO 29008G18KT 10SM OVC080 M03/M13 A2980 RMK AO2 SNE06 SLP093 P0000 T10331133

10-Day Weather Forecast

Almanac

Astronomy

Feb. 11, 2016 Rise Set
Actual Time
Civil Twilight
Nautical Twilight
Astronomical Twilight
Moon
Length of Visible Light
Length of Day
Tomorrow will be .
, % of the Moon is Illuminated

Today's Extremes

State Highs State Lows

Community

WunderPhotos

Upload Photos

1,892,030 photos uploaded!

WunderBlog® & News

Nearby

Air Quality

  Air Quality AQ Index Pollutant
Not available.

Snow Depth

Station Depth Elevation

Earthquake Activity

City Distance Mag. Time & Date
Minimum magnitude displayed is 2.5.

Coastal Water Temperatures

Place Temperature

Stations

Nearby Weather Stations

Station Location Temp. Windchill Dew Point Humidity Wind Precip. Elev Updated Type
                   

Watches & Warnings

There are currently no watches in effect.